Time;durP1;ratioP1;P1;durP2;ratioP2;P2;SDS_P1;SDS_P2;PMS_P1;PMS_P2;Temp;Humidity;BMP_temperature;BMP_pressure;BME280_temperature;BME280_humidity;BME280_pressure;Samples;Min_cycle;Max_cycle;Signal;HPM_P1;HPM_P2
2023/08/01 00:01:02;;;;;;;0.60;0.30;;;21.00;62.10;;;;;;4962768;28;20073;-95
2023/08/01 00:03:30;;;;;;;0.82;0.20;;;21.00;62.30;;;;;;4972042;28;20403;-93
2023/08/01 00:05:57;;;;;;;0.60;0.30;;;20.90;62.30;;;;;;4989641;28;20054;-95
2023/08/01 00:08:25;;;;;;;0.90;0.30;;;20.90;62.40;;;;;;4983869;28;20073;-94
2023/08/01 00:10:54;;;;;;;1.20;0.30;;;20.90;62.50;;;;;;4981572;28;20451;-95
2023/08/01 00:13:21;;;;;;;0.30;0.20;;;21.00;62.60;;;;;;4983352;28;20482;-94
2023/08/01 00:15:48;;;;;;;0.28;0.20;;;20.90;62.50;;;;;;4981758;28;20494;-94
2023/08/01 00:18:16;;;;;;;2.78;0.63;;;20.90;62.50;;;;;;4983979;28;20054;-94
2023/08/01 00:20:43;;;;;;;0.75;0.32;;;21.00;62.60;;;;;;4982453;28;20057;-93
2023/08/01 00:23:12;;;;;;;1.67;0.40;;;21.00;63.30;;;;;;4988841;28;20474;-95
2023/08/01 00:25:40;;;;;;;1.95;0.50;;;21.00;62.60;;;;;;4989121;28;20046;-93
2023/08/01 00:28:09;;;;;;;0.40;0.20;;;21.00;62.60;;;;;;4983855;28;20479;-94
2023/08/01 00:30:36;;;;;;;1.80;0.30;;;21.00;62.70;;;;;;4981884;28;20467;-95
2023/08/01 00:33:04;;;;;;;1.38;0.32;;;21.00;62.60;;;;;;4985400;28;20062;-95
2023/08/01 00:35:31;;;;;;;0.57;0.20;;;21.00;62.60;;;;;;4983666;28;20406;-95
2023/08/01 00:37:59;;;;;;;3.20;0.30;;;21.00;63.40;;;;;;4984339;28;20065;-96
2023/08/01 00:40:32;;;;;;;0.30;0.30;;;21.00;62.70;;;;;;4982774;28;20050;-94
2023/08/01 00:43:00;;;;;;;0.50;0.30;;;21.00;62.80;;;;;;4987421;28;20600;-93
2023/08/01 00:45:30;;;;;;;1.00;0.30;;;21.00;62.80;;;;;;4981664;28;20046;-95
2023/08/01 00:47:57;;;;;;;3.85;0.17;;;21.00;62.80;;;;;;4981794;28;20061;-94
2023/08/01 00:50:26;;;;;;;0.30;0.20;;;21.00;62.80;;;;;;4983201;28;20076;-93
2023/08/01 00:52:53;;;;;;;0.63;0.40;;;21.00;62.90;;;;;;4982596;28;20066;-94
2023/08/01 00:55:23;;;;;;;0.80;0.20;;;21.00;62.90;;;;;;4982238;28;20743;-88
2023/08/01 00:57:50;;;;;;;3.67;0.25;;;21.00;62.90;;;;;;4980495;28;20406;-89
2023/08/01 01:00:18;;;;;;;0.77;0.30;;;21.00;62.90;;;;;;4982266;28;20054;-88
2023/08/01 01:02:47;;;;;;;0.88;0.30;;;21.00;63.00;;;;;;4999316;23;20050;-61
2023/08/01 01:05:15;;;;;;;0.50;0.20;;;21.00;63.00;;;;;;4964636;28;20055;-49
2023/08/01 01:07:42;;;;;;;0.90;0.40;;;21.00;63.00;;;;;;4968355;28;20051;-46
2023/08/01 01:10:10;;;;;;;0.50;0.30;;;21.00;63.10;;;;;;4966035;28;20601;-50
2023/08/01 01:12:37;;;;;;;1.38;0.30;;;21.00;63.10;;;;;;4964494;28;20054;-49
2023/08/01 01:15:05;;;;;;;0.47;0.30;;;21.00;63.10;;;;;;4965684;28;20051;-45
2023/08/01 01:17:33;;;;;;;0.95;0.32;;;21.00;63.10;;;;;;4965417;28;20059;-47
2023/08/01 01:20:01;;;;;;;1.02;0.40;;;21.00;63.10;;;;;;4965992;28;20055;-47
2023/08/01 01:22:31;;;;;;;2.78;0.22;;;21.00;63.20;;;;;;4964497;28;20067;-48
2023/08/01 01:24:59;;;;;;;0.15;0.15;;;21.00;63.20;;;;;;4966269;28;20275;-49
2023/08/01 01:27:27;;;;;;;1.10;0.20;;;21.00;63.20;;;;;;4963420;28;20051;-48
2023/08/01 01:29:56;;;;;;;0.50;0.30;;;21.00;63.20;;;;;;4966272;28;20063;-47
2023/08/01 01:32:24;;;;;;;0.60;0.15;;;21.00;63.30;;;;;;4964913;28;20054;-49
2023/08/01 01:34:51;;;;;;;2.08;0.40;;;21.00;63.30;;;;;;4965626;28;20414;-48
2023/08/01 01:37:18;;;;;;;1.08;0.35;;;21.00;63.40;;;;;;4965783;28;20046;-47
2023/08/01 01:39:47;;;;;;;0.47;0.30;;;21.00;63.40;;;;;;4964119;28;20077;-50
2023/08/01 01:42:14;;;;;;;0.57;0.25;;;21.00;63.50;;;;;;4964761;28;20411;-55
2023/08/01 01:44:41;;;;;;;0.47;0.20;;;21.00;63.40;;;;;;4965565;28;20533;-50
2023/08/01 01:47:08;;;;;;;0.22;0.20;;;21.00;63.40;;;;;;4965617;28;20058;-51
2023/08/01 01:49:36;;;;;;;0.77;0.20;;;21.00;63.50;;;;;;4965261;28;20062;-51
2023/08/01 01:52:03;;;;;;;1.38;0.40;;;21.00;63.50;;;;;;4964007;28;20520;-51
2023/08/01 01:54:30;;;;;;;2.65;0.50;;;21.00;63.50;;;;;;4965012;28;20065;-47
2023/08/01 01:56:59;;;;;;;0.77;0.30;;;21.00;63.60;;;;;;4963060;28;20050;-48
2023/08/01 01:59:26;;;;;;;1.10;0.30;;;21.00;63.70;;;;;;4965122;28;20061;-46
2023/08/01 02:01:53;;;;;;;2.15;0.40;;;21.00;63.70;;;;;;4964711;28;20077;-46
2023/08/01 02:04:21;;;;;;;0.40;0.30;;;21.00;63.70;;;;;;4964710;28;20403;-45
2023/08/01 02:06:48;;;;;;;0.65;0.20;;;21.00;63.80;;;;;;4964170;28;20054;-50
2023/08/01 02:09:16;;;;;;;0.50;0.30;;;21.00;63.80;;;;;;4964202;28;20050;-52
2023/08/01 02:11:43;;;;;;;2.53;0.55;;;21.00;64.00;;;;;;4963175;28;20065;-49
2023/08/01 02:14:12;;;;;;;1.45;0.43;;;21.00;64.00;;;;;;4965006;28;20065;-48
2023/08/01 02:16:39;;;;;;;0.40;0.28;;;21.00;64.20;;;;;;4965239;28;20054;-48
2023/08/01 02:19:06;;;;;;;1.50;0.43;;;21.10;64.10;;;;;;4964697;28;20061;-50
2023/08/01 02:21:34;;;;;;;0.38;0.20;;;21.10;64.10;;;;;;4964952;28;20062;-49
2023/08/01 02:24:01;;;;;;;0.50;0.20;;;21.00;64.10;;;;;;4964102;28;20051;-50
2023/08/01 02:26:28;;;;;;;0.68;0.30;;;21.10;64.30;;;;;;4962551;28;20404;-46
2023/08/01 02:28:56;;;;;;;0.85;0.38;;;21.10;64.30;;;;;;4964910;28;20422;-51
2023/08/01 02:31:24;;;;;;;1.13;0.30;;;21.00;64.30;;;;;;4964436;28;20065;-45
2023/08/01 02:33:52;;;;;;;0.68;0.22;;;21.00;64.50;;;;;;4966042;28;20065;-46
2023/08/01 02:36:19;;;;;;;0.85;0.20;;;21.00;64.50;;;;;;4964117;28;20415;-50
2023/08/01 02:38:46;;;;;;;0.85;0.20;;;21.00;64.50;;;;;;4964790;28;20062;-50
2023/08/01 02:41:13;;;;;;;1.17;0.30;;;21.00;64.60;;;;;;4962687;28;20058;-48
2023/08/01 02:43:41;;;;;;;1.85;0.30;;;21.00;64.80;;;;;;4964331;28;20061;-51
2023/08/01 02:46:08;;;;;;;0.22;0.20;;;21.00;65.10;;;;;;4963990;28;20054;-51
2023/08/01 02:48:37;;;;;;;1.55;0.35;;;20.90;65.10;;;;;;4965762;28;20492;-43
2023/08/01 02:51:04;;;;;;;1.13;0.50;;;20.90;65.50;;;;;;4963135;28;20063;-52
2023/08/01 02:53:31;;;;;;;0.20;0.20;;;20.80;65.60;;;;;;4963638;28;20410;-47
2023/08/01 02:55:58;;;;;;;5.15;0.30;;;20.80;65.60;;;;;;4962942;28;20054;-50
2023/08/01 02:58:26;;;;;;;3.05;0.40;;;20.80;65.70;;;;;;4964656;28;20054;-47
2023/08/01 03:00:53;;;;;;;7.72;0.40;;;20.70;65.60;;;;;;4963567;28;20604;-51
2023/08/01 03:03:20;;;;;;;0.98;0.40;;;20.70;65.80;;;;;;4962565;28;20055;-48
2023/08/01 03:05:49;;;;;;;0.30;0.13;;;20.70;65.90;;;;;;4964901;28;20066;-46
2023/08/01 03:08:16;;;;;;;1.30;0.40;;;20.60;66.10;;;;;;4965160;28;20050;-50
2023/08/01 03:10:44;;;;;;;0.65;0.30;;;20.50;66.10;;;;;;4965708;28;20050;-52
2023/08/01 03:13:11;;;;;;;1.38;0.40;;;20.50;66.10;;;;;;4967348;28;20058;-57
2023/08/01 03:15:38;;;;;;;1.10;0.60;;;20.50;66.20;;;;;;4968012;28;20384;-57
2023/08/01 03:18:06;;;;;;;0.77;0.60;;;20.40;66.30;;;;;;4968019;28;20062;-51
2023/08/01 03:20:33;;;;;;;1.45;0.70;;;20.40;66.50;;;;;;4968654;28;20062;-49
2023/08/01 03:23:01;;;;;;;0.47;0.43;;;20.30;66.30;;;;;;4966298;28;20051;-50
2023/08/01 03:25:29;;;;;;;1.20;0.55;;;20.30;66.40;;;;;;4968000;28;20070;-49
2023/08/01 03:27:57;;;;;;;0.95;0.50;;;20.20;66.30;;;;;;4966212;28;20058;-53
2023/08/01 03:30:25;;;;;;;0.73;0.40;;;20.20;66.10;;;;;;4968163;28;20081;-61
2023/08/01 03:32:52;;;;;;;6.43;0.52;;;20.10;65.60;;;;;;4968325;28;20514;-59
2023/08/01 03:35:20;;;;;;;2.60;0.85;;;20.00;65.30;;;;;;4968943;28;20494;-62
2023/08/01 03:37:47;;;;;;;3.35;0.60;;;19.90;65.20;;;;;;4967610;28;20070;-57
2023/08/01 03:40:16;;;;;;;1.73;0.63;;;19.80;65.30;;;;;;4970995;28;20058;-57
2023/08/01 03:42:43;;;;;;;2.15;0.93;;;19.70;65.60;;;;;;4965556;28;20055;-57
2023/08/01 03:45:11;;;;;;;1.77;0.60;;;19.60;65.80;;;;;;4967915;28;20055;-54
2023/08/01 03:47:39;;;;;;;5.18;0.75;;;19.60;66.20;;;;;;4967575;28;20062;-48
2023/08/01 03:50:07;;;;;;;2.38;0.90;;;19.50;66.40;;;;;;4968574;28;20069;-49
2023/08/01 03:52:34;;;;;;;1.55;0.80;;;19.50;66.20;;;;;;4967118;28;20058;-49
2023/08/01 03:55:01;;;;;;;2.17;1.10;;;19.40;66.20;;;;;;4967303;28;20047;-58
2023/08/01 03:57:30;;;;;;;3.63;1.17;;;19.40;66.10;;;;;;4967746;28;20070;-54
2023/08/01 03:59:57;;;;;;;2.35;0.95;;;19.40;65.90;;;;;;4967839;28;20054;-49
2023/08/01 04:02:24;;;;;;;3.92;1.33;;;19.30;65.90;;;;;;4967436;28;20062;-60
2023/08/01 04:04:51;;;;;;;2.35;1.10;;;19.30;66.00;;;;;;4966891;28;20062;-51
2023/08/01 04:07:19;;;;;;;4.40;1.00;;;19.20;66.00;;;;;;4967334;28;20392;-59
2023/08/01 04:09:47;;;;;;;2.00;1.63;;;19.20;66.10;;;;;;4966825;28;20541;-48
2023/08/01 04:12:14;;;;;;;3.63;1.90;;;19.20;66.20;;;;;;4965687;28;20054;-57
2023/08/01 04:14:43;;;;;;;3.90;1.80;;;19.10;66.20;;;;;;4951954;28;20423;-56
2023/08/01 04:17:11;;;;;;;2.13;1.20;;;19.10;66.10;;;;;;4893162;28;20055;-56
2023/08/01 04:19:38;;;;;;;1.75;1.40;;;19.10;66.10;;;;;;4967027;28;20065;-56
2023/08/01 04:22:05;;;;;;;2.00;1.10;;;19.10;66.20;;;;;;4967295;28;20069;-53
2023/08/01 04:24:32;;;;;;;5.18;1.20;;;19.00;66.20;;;;;;4966520;28;20054;-59
2023/08/01 04:27:00;;;;;;;2.33;1.50;;;19.00;66.40;;;;;;4965514;28;20058;-57
2023/08/01 04:29:27;;;;;;;2.30;1.40;;;19.00;66.30;;;;;;4964107;28;20051;-48
2023/08/01 04:31:56;;;;;;;7.60;1.65;;;18.90;66.30;;;;;;4966920;28;20058;-63
2023/08/01 04:34:23;;;;;;;4.18;1.85;;;19.00;66.40;;;;;;4966484;28;20597;-58
2023/08/01 04:36:51;;;;;;;2.00;1.42;;;18.90;66.30;;;;;;4969063;28;20054;-50
2023/08/01 04:39:18;;;;;;;2.50;1.80;;;18.90;66.40;;;;;;4966889;28;20423;-56
2023/08/01 04:41:45;;;;;;;3.95;1.92;;;18.90;66.40;;;;;;4964456;28;20058;-56
2023/08/01 04:44:13;;;;;;;3.22;1.88;;;18.90;66.40;;;;;;4966605;28;20050;-60
2023/08/01 04:46:40;;;;;;;4.97;2.30;;;18.90;66.50;;;;;;4966070;28;20055;-51
2023/08/01 04:49:08;;;;;;;2.55;1.58;;;18.90;66.60;;;;;;4967788;28;20054;-57
2023/08/01 04:51:36;;;;;;;5.03;2.40;;;18.90;66.80;;;;;;4966149;28;20061;-51
2023/08/01 04:54:03;;;;;;;5.63;2.47;;;18.90;66.70;;;;;;4967784;28;20065;-59
2023/08/01 04:56:30;;;;;;;4.28;2.28;;;18.80;66.70;;;;;;4966192;28;20043;-56
2023/08/01 04:58:57;;;;;;;5.18;2.60;;;18.80;66.60;;;;;;4967250;28;21316;-56
2023/08/01 05:01:25;;;;;;;12.93;2.90;;;18.80;66.50;;;;;;4966425;28;20062;-55
2023/08/01 05:03:52;;;;;;;3.55;2.60;;;18.80;66.60;;;;;;4966955;28;20059;-56
2023/08/01 05:06:20;;;;;;;7.07;2.58;;;18.80;66.60;;;;;;4966486;28;20059;-57
2023/08/01 05:08:48;;;;;;;5.72;2.65;;;18.80;66.70;;;;;;4966232;28;20057;-52
2023/08/01 05:11:15;;;;;;;4.15;2.65;;;18.80;66.70;;;;;;4963212;28;20050;-63
2023/08/01 05:13:42;;;;;;;8.85;3.45;;;18.90;66.60;;;;;;4964960;28;20050;-47
2023/08/01 05:16:09;;;;;;;5.30;3.33;;;18.80;66.10;;;;;;4965884;28;20438;-46
2023/08/01 05:18:37;;;;;;;9.25;3.60;;;18.90;66.20;;;;;;4965029;28;20047;-49
2023/08/01 05:21:04;;;;;;;7.63;3.20;;;18.80;66.00;;;;;;4965163;28;20055;-47
2023/08/01 05:23:32;;;;;;;6.95;3.08;;;18.80;65.30;;;;;;4965896;28;20050;-48
2023/08/01 05:26:00;;;;;;;5.00;2.80;;;18.80;65.10;;;;;;4962800;28;20395;-48
2023/08/01 05:28:27;;;;;;;6.88;2.75;;;18.80;65.20;;;;;;4965438;28;20506;-52
2023/08/01 05:30:55;;;;;;;8.85;3.15;;;18.80;65.30;;;;;;4965427;28;20063;-49
2023/08/01 05:33:22;;;;;;;6.35;3.15;;;18.80;64.60;;;;;;4964668;28;20054;-51
2023/08/01 05:35:50;;;;;;;9.13;3.30;;;18.80;64.40;;;;;;4963083;28;20051;-62
2023/08/01 05:38:17;;;;;;;8.77;3.28;;;18.80;63.70;;;;;;4964666;28;20061;-59
2023/08/01 05:40:46;;;;;;;5.85;2.75;;;18.70;63.40;;;;;;4966282;28;20483;-57
2023/08/01 05:43:13;;;;;;;7.50;2.95;;;18.70;63.50;;;;;;4965927;28;20487;-59
2023/08/01 05:45:40;;;;;;;6.43;3.38;;;18.60;63.50;;;;;;4965805;28;20054;-56
2023/08/01 05:48:07;;;;;;;6.93;2.90;;;18.60;63.90;;;;;;4964029;28;20057;-56
2023/08/01 05:50:35;;;;;;;4.32;2.97;;;18.50;64.00;;;;;;4965012;28;20050;-58
2023/08/01 05:53:02;;;;;;;6.25;3.55;;;18.50;64.30;;;;;;4966090;28;20586;-59
2023/08/01 05:55:29;;;;;;;5.03;3.00;;;18.50;64.40;;;;;;4964020;28;20050;-60
2023/08/01 05:57:58;;;;;;;9.45;3.20;;;18.50;64.50;;;;;;4964578;28;20047;-59
2023/08/01 06:00:25;;;;;;;5.85;2.60;;;18.50;64.70;;;;;;4965415;28;20531;-58
2023/08/01 06:02:53;;;;;;;6.85;3.25;;;18.50;64.90;;;;;;4964392;28;20058;-61
2023/08/01 06:05:20;;;;;;;8.73;3.45;;;18.50;65.00;;;;;;4966074;28;20410;-57
2023/08/01 06:07:47;;;;;;;7.55;3.33;;;18.50;65.00;;;;;;4966753;28;20517;-59
2023/08/01 06:10:14;;;;;;;7.45;3.22;;;18.50;64.90;;;;;;4964695;28;20126;-59
2023/08/01 06:12:42;;;;;;;6.22;2.90;;;18.50;64.90;;;;;;4966940;28;20064;-58
2023/08/01 06:15:11;;;;;;;5.82;2.85;;;18.60;65.20;;;;;;4964814;28;20066;-58
2023/08/01 06:17:38;;;;;;;5.80;3.03;;;18.50;65.40;;;;;;4965263;28;20406;-58
2023/08/01 06:20:07;;;;;;;8.73;3.17;;;18.60;65.60;;;;;;4964058;28;20062;-59
2023/08/01 06:22:34;;;;;;;6.30;3.30;;;18.60;66.00;;;;;;4964379;28;20050;-59
2023/08/01 06:25:01;;;;;;;12.45;3.80;;;18.60;66.20;;;;;;4966245;28;20513;-61
2023/08/01 06:27:28;;;;;;;5.78;2.85;;;18.60;66.50;;;;;;4961808;28;20062;-59
2023/08/01 06:29:55;;;;;;;7.65;3.53;;;18.70;66.70;;;;;;4965486;28;20062;-59
2023/08/01 06:32:24;;;;;;;8.93;3.42;;;18.70;67.00;;;;;;4964761;28;20050;-60
2023/08/01 06:34:51;;;;;;;6.03;3.35;;;18.70;67.20;;;;;;4964387;28;20091;-61
2023/08/01 06:37:19;;;;;;;6.15;3.75;;;18.80;67.00;;;;;;4964321;28;20046;-62
2023/08/01 06:39:46;;;;;;;9.20;3.25;;;18.80;67.20;;;;;;4964063;28;20069;-61
2023/08/01 06:42:18;;;;;;;7.63;4.15;;;18.80;67.20;;;;;;4961100;28;20055;-62
2023/08/01 06:44:54;;;;;;;7.03;3.80;;;18.80;66.90;;;;;;4962422;28;20062;-59
2023/08/01 06:47:33;;;;;;;9.98;3.20;;;18.80;67.10;;;;;;4961399;28;20050;-60
2023/08/01 06:50:02;;;;;;;6.93;3.47;;;18.80;67.20;;;;;;4963128;28;20058;-60
2023/08/01 06:52:32;;;;;;;7.88;4.15;;;18.90;67.40;;;;;;4961785;28;20059;-58
2023/08/01 06:55:01;;;;;;;7.65;3.42;;;18.90;67.20;;;;;;4965114;28;20062;-58
2023/08/01 06:57:34;;;;;;;7.45;3.65;;;18.90;67.20;;;;;;4946304;28;20523;-62
2023/08/01 07:00:03;;;;;;;7.53;3.40;;;18.90;66.30;;;;;;4963748;28;20499;-60
2023/08/01 07:02:32;;;;;;;8.57;3.25;;;18.90;66.40;;;;;;4964380;28;20047;-51
2023/08/01 07:04:59;;;;;;;6.22;3.28;;;18.90;66.60;;;;;;4965396;28;20085;-51
2023/08/01 07:07:27;;;;;;;6.90;3.40;;;19.00;66.60;;;;;;4962312;28;20521;-57
2023/08/01 07:09:54;;;;;;;6.28;3.47;;;19.00;66.30;;;;;;4964723;28;20055;-52
2023/08/01 07:12:21;;;;;;;6.28;3.17;;;19.00;66.40;;;;;;4962689;28;20054;-54
2023/08/01 07:14:49;;;;;;;5.25;3.38;;;19.10;66.60;;;;;;4964306;28;20061;-54
2023/08/01 07:17:16;;;;;;;8.40;3.35;;;19.10;66.70;;;;;;4962701;28;20380;-48
2023/08/01 07:19:45;;;;;;;5.95;3.40;;;19.10;66.60;;;;;;4964460;28;20065;-46
2023/08/01 07:22:12;;;;;;;8.20;3.33;;;19.20;66.50;;;;;;4964643;28;20059;-51
2023/08/01 07:24:39;;;;;;;9.07;3.58;;;19.20;66.00;;;;;;4963769;28;20422;-50
2023/08/01 07:27:07;;;;;;;7.22;3.25;;;19.30;65.40;;;;;;4962517;28;20059;-56
2023/08/01 07:29:34;;;;;;;5.90;3.00;;;19.30;65.00;;;;;;4964259;28;20061;-52
2023/08/01 07:32:02;;;;;;;9.02;3.90;;;19.30;64.40;;;;;;4964787;28;20070;-52
2023/08/01 07:34:29;;;;;;;9.95;4.22;;;19.30;63.90;;;;;;4963652;28;20085;-54
2023/08/01 07:36:58;;;;;;;12.00;3.88;;;19.40;63.70;;;;;;4964125;28;20255;-52
2023/08/01 07:39:25;;;;;;;12.13;3.78;;;19.40;63.40;;;;;;4964721;28;20054;-68
2023/08/01 07:41:52;;;;;;;9.00;3.85;;;19.50;62.90;;;;;;4962131;28;20055;-51
2023/08/01 07:44:19;;;;;;;11.20;4.70;;;19.50;62.60;;;;;;4964495;28;20054;-55
2023/08/01 07:46:47;;;;;;;9.50;4.15;;;19.50;62.60;;;;;;4963657;28;20438;-56
2023/08/01 07:49:14;;;;;;;6.35;3.60;;;19.50;62.50;;;;;;4964189;28;20074;-53
2023/08/01 07:51:41;;;;;;;7.93;3.80;;;19.50;62.70;;;;;;4962963;28;20050;-52
2023/08/01 07:54:10;;;;;;;7.25;3.80;;;19.50;62.90;;;;;;4966490;28;20113;-55
2023/08/01 07:56:38;;;;;;;7.22;3.95;;;19.50;63.00;;;;;;4966359;28;20058;-53
2023/08/01 07:59:05;;;;;;;5.22;3.63;;;19.60;62.90;;;;;;4968673;28;20065;-56
2023/08/01 08:01:32;;;;;;;6.57;3.28;;;19.60;62.90;;;;;;4967445;28;20050;-62
2023/08/01 08:04:00;;;;;;;6.22;3.75;;;19.60;62.70;;;;;;4966868;28;20062;-55
2023/08/01 08:06:27;;;;;;;7.13;3.78;;;19.60;62.50;;;;;;4967022;28;20065;-46
2023/08/01 08:08:54;;;;;;;9.00;3.78;;;19.60;62.50;;;;;;4966978;28;20066;-58
2023/08/01 08:11:23;;;;;;;7.60;4.30;;;19.50;62.30;;;;;;4965088;28;20410;-60
2023/08/01 08:13:50;;;;;;;7.40;3.75;;;19.50;62.50;;;;;;4967464;28;20615;-52
2023/08/01 08:16:17;;;;;;;7.90;3.65;;;19.50;63.20;;;;;;4965608;28;20538;-48
2023/08/01 08:18:45;;;;;;;9.32;3.47;;;19.60;63.70;;;;;;4967612;28;20042;-53
2023/08/01 08:21:12;;;;;;;9.35;4.20;;;19.60;64.00;;;;;;4966590;28;20050;-51
2023/08/01 08:23:39;;;;;;;6.20;3.25;;;19.60;64.20;;;;;;4965949;28;20510;-54
2023/08/01 08:26:07;;;;;;;7.00;3.50;;;19.60;64.10;;;;;;4965827;28;20058;-50
2023/08/01 08:28:35;;;;;;;8.13;3.50;;;19.70;63.60;;;;;;4967952;28;20513;-52
2023/08/01 08:31:04;;;;;;;8.50;3.60;;;19.70;62.70;;;;;;4966863;28;20058;-52
2023/08/01 08:33:31;;;;;;;7.22;3.40;;;19.80;63.60;;;;;;4967062;28;20505;-47
2023/08/01 08:35:58;;;;;;;5.47;3.45;;;19.80;63.20;;;;;;4965639;28;20067;-48
2023/08/01 08:38:26;;;;;;;7.65;3.75;;;19.90;63.20;;;;;;4965667;28;20061;-52
2023/08/01 08:41:02;;;;;;;6.18;3.88;;;20.00;62.80;;;;;;4965140;28;20062;-45
2023/08/01 08:43:32;;;;;;;6.80;3.40;;;20.10;62.20;;;;;;4966371;28;20387;-46
2023/08/01 08:46:02;;;;;;;5.93;3.45;;;20.10;61.80;;;;;;4966999;28;20055;-59
2023/08/01 08:48:30;;;;;;;6.97;3.80;;;20.20;61.70;;;;;;4966069;28;20066;-48
2023/08/01 08:50:59;;;;;;;7.88;3.97;;;20.10;60.50;;;;;;4965243;28;20055;-53
2023/08/01 08:53:27;;;;;;;6.78;4.03;;;20.20;60.10;;;;;;4966214;28;20519;-47
2023/08/01 08:55:54;;;;;;;8.52;4.13;;;20.20;59.90;;;;;;4964921;28;20065;-47
2023/08/01 08:58:22;;;;;;;11.50;4.10;;;20.30;60.10;;;;;;4964943;28;20047;-49
2023/08/01 09:00:50;;;;;;;10.32;4.55;;;20.30;60.00;;;;;;4965568;28;20055;-50
2023/08/01 09:03:19;;;;;;;10.30;4.10;;;20.30;59.20;;;;;;4965762;28;20055;-51
2023/08/01 09:05:51;;;;;;;7.15;3.95;;;20.30;57.90;;;;;;4965359;28;20143;-56
2023/08/01 09:08:21;;;;;;;12.10;4.45;;;20.40;58.20;;;;;;4964907;28;20050;-52
2023/08/01 09:10:48;;;;;;;10.38;4.50;;;20.40;58.00;;;;;;4964550;28;20059;-47
2023/08/01 09:13:16;;;;;;;9.43;3.60;;;20.40;58.70;;;;;;4965696;28;20055;-49
2023/08/01 09:15:44;;;;;;;10.77;4.05;;;20.40;58.80;;;;;;4965602;28;20055;-46
2023/08/01 09:18:11;;;;;;;9.25;4.07;;;20.50;59.10;;;;;;4965070;28;20046;-54
2023/08/01 09:20:44;;;;;;;9.40;3.97;;;20.50;58.30;;;;;;4966502;28;20058;-55
2023/08/01 09:23:11;;;;;;;7.25;3.85;;;20.60;57.40;;;;;;4965598;28;20062;-59
2023/08/01 09:25:39;;;;;;;15.90;4.25;;;20.60;56.70;;;;;;4965080;28;20470;-53
2023/08/01 09:28:17;;;;;;;12.65;4.10;;;20.60;56.90;;;;;;4964904;28;20483;-58
2023/08/01 09:30:49;;;;;;;8.43;3.35;;;20.60;57.20;;;;;;4965463;28;20062;-49
2023/08/01 09:33:16;;;;;;;9.00;3.63;;;20.60;57.10;;;;;;4965888;28;20058;-49
2023/08/01 09:35:46;;;;;;;10.88;4.45;;;20.70;57.30;;;;;;4963799;28;20055;-59
2023/08/01 09:38:14;;;;;;;6.72;2.80;;;20.70;57.30;;;;;;4964374;28;20051;-53
2023/08/01 09:40:43;;;;;;;8.35;2.97;;;20.70;57.20;;;;;;4964426;28;20418;-54
2023/08/01 09:43:11;;;;;;;7.43;2.75;;;20.80;55.50;;;;;;4964978;28;20061;-53
2023/08/01 09:45:39;;;;;;;7.55;3.17;;;20.80;56.20;;;;;;4964748;28;20059;-53
2023/08/01 09:48:06;;;;;;;9.60;3.00;;;20.90;56.00;;;;;;4963618;28;20066;-51
2023/08/01 09:50:34;;;;;;;7.72;2.90;;;20.90;56.00;;;;;;4965681;28;20054;-49
2023/08/01 09:53:12;;;;;;;6.80;2.60;;;21.00;55.60;;;;;;4964530;28;20077;-51
2023/08/01 09:55:41;;;;;;;9.18;3.35;;;21.00;55.30;;;;;;4964936;28;20105;-49
2023/08/01 09:58:10;;;;;;;9.48;2.60;;;21.10;55.90;;;;;;4964932;28;20062;-61
2023/08/01 10:00:38;;;;;;;7.95;2.63;;;21.10;55.30;;;;;;4964541;28;20065;-51
2023/08/01 10:03:05;;;;;;;9.55;2.75;;;21.20;55.50;;;;;;4965150;28;20053;-62
2023/08/01 10:05:36;;;;;;;7.30;2.72;;;21.20;54.40;;;;;;4965276;28;21398;-56
2023/08/01 10:08:04;;;;;;;6.72;2.58;;;21.20;55.00;;;;;;4964537;28;20416;-55
2023/08/01 10:10:33;;;;;;;7.13;3.03;;;21.30;54.70;;;;;;4965007;28;20058;-52
2023/08/01 10:13:02;;;;;;;5.72;2.72;;;21.30;54.20;;;;;;4963684;28;20054;-52
2023/08/01 10:15:30;;;;;;;5.05;2.50;;;21.30;54.20;;;;;;4964472;28;20054;-55
2023/08/01 10:17:58;;;;;;;5.40;2.50;;;21.30;53.80;;;;;;4963548;28;20054;-55
2023/08/01 10:20:26;;;;;;;5.28;2.47;;;21.40;54.00;;;;;;4963624;28;20065;-52
2023/08/01 10:22:56;;;;;;;8.02;2.47;;;21.40;53.80;;;;;;4964308;28;20500;-50
2023/08/01 10:25:24;;;;;;;6.00;2.10;;;21.40;53.10;;;;;;4964275;28;20490;-50
2023/08/01 10:28:00;;;;;;;6.47;2.20;;;21.40;53.30;;;;;;4965234;28;20062;-57
2023/08/01 10:30:28;;;;;;;7.50;2.85;;;21.40;53.20;;;;;;4963700;28;20513;-51
2023/08/01 10:32:57;;;;;;;5.97;2.47;;;21.40;53.10;;;;;;4964843;28;20050;-62
2023/08/01 10:35:34;;;;;;;8.20;2.75;;;21.50;53.10;;;;;;4963530;28;20503;-52
2023/08/01 10:38:07;;;;;;;9.45;2.67;;;21.50;53.60;;;;;;4964577;28;20402;-52
2023/08/01 10:40:36;;;;;;;4.18;2.00;;;21.50;53.80;;;;;;4961286;28;20158;-47
2023/08/01 10:43:05;;;;;;;7.60;2.50;;;21.60;53.90;;;;;;4962470;28;20415;-50
2023/08/01 10:45:32;;;;;;;8.77;2.40;;;21.60;53.60;;;;;;4964946;28;20054;-50
2023/08/01 10:48:09;;;;;;;4.88;2.28;;;21.60;53.70;;;;;;4961884;28;20055;-49
2023/08/01 10:50:37;;;;;;;7.43;2.38;;;21.70;53.80;;;;;;4964214;28;20510;-47
2023/08/01 10:53:07;;;;;;;7.95;2.90;;;21.80;54.30;;;;;;4964546;28;20063;-49
2023/08/01 10:55:44;;;;;;;5.57;2.55;;;21.80;54.30;;;;;;4964076;28;20593;-48
2023/08/01 10:58:13;;;;;;;3.35;2.25;;;21.90;53.80;;;;;;4964317;28;20058;-48
2023/08/01 11:00:40;;;;;;;3.67;2.08;;;21.90;54.00;;;;;;4964481;28;20051;-46
2023/08/01 11:03:08;;;;;;;5.45;2.00;;;22.00;54.10;;;;;;4964798;28;20438;-62
2023/08/01 11:05:35;;;;;;;5.45;2.08;;;22.10;53.10;;;;;;4964638;28;20422;-62
2023/08/01 11:08:05;;;;;;;12.10;2.15;;;22.10;52.80;;;;;;4963887;28;20051;-51
2023/08/01 11:10:33;;;;;;;4.38;1.80;;;22.00;52.30;;;;;;4963442;28;20051;-59
2023/08/01 11:13:01;;;;;;;6.13;2.00;;;22.10;52.70;;;;;;4963116;28;20513;-51
2023/08/01 11:15:29;;;;;;;4.00;1.90;;;22.10;52.80;;;;;;4964084;28;20058;-52
2023/08/01 11:17:57;;;;;;;6.88;2.35;;;22.10;53.00;;;;;;4963268;28;20495;-51
2023/08/01 11:20:26;;;;;;;5.00;1.77;;;22.10;52.80;;;;;;4965023;28;20054;-49
2023/08/01 11:22:56;;;;;;;4.53;2.05;;;22.10;53.00;;;;;;4964633;28;20054;-52
2023/08/01 11:25:34;;;;;;;4.10;2.00;;;22.20;53.10;;;;;;4963271;28;20069;-50
2023/08/01 11:28:04;;;;;;;4.65;1.98;;;22.20;53.20;;;;;;4963968;28;20050;-50
2023/08/01 11:30:34;;;;;;;3.13;1.85;;;22.20;53.20;;;;;;4967549;28;20046;-48
2023/08/01 11:33:02;;;;;;;6.70;1.83;;;22.30;53.80;;;;;;4967865;28;20057;-53
2023/08/01 11:35:30;;;;;;;5.38;1.90;;;22.30;52.50;;;;;;4967336;28;20055;-52
2023/08/01 11:37:58;;;;;;;3.05;1.85;;;22.30;52.50;;;;;;4967461;28;20419;-50
2023/08/01 11:40:26;;;;;;;5.80;1.98;;;22.40;52.80;;;;;;4967112;28;20067;-51
2023/08/01 11:42:58;;;;;;;4.85;1.90;;;22.40;52.80;;;;;;4966917;28;20480;-55
2023/08/01 11:45:25;;;;;;;5.18;2.10;;;22.50;52.40;;;;;;4967679;28;20051;-53
2023/08/01 11:47:54;;;;;;;6.13;2.40;;;22.50;51.40;;;;;;4967279;28;20757;-51
2023/08/01 11:50:23;;;;;;;6.50;2.63;;;22.60;50.80;;;;;;4967411;28;20518;-52
2023/08/01 11:52:50;;;;;;;5.00;2.17;;;22.60;51.40;;;;;;4968707;28;20437;-49
2023/08/01 11:55:22;;;;;;;5.63;2.17;;;22.70;51.70;;;;;;4967003;28;20057;-56
2023/08/01 11:57:56;;;;;;;7.32;1.90;;;22.70;50.30;;;;;;4966338;28;20055;-51
2023/08/01 12:00:25;;;;;;;7.68;2.15;;;22.70;50.70;;;;;;4966588;28;20054;-52
2023/08/01 12:03:03;;;;;;;3.65;1.90;;;22.80;50.30;;;;;;4966477;28;20054;-51
2023/08/01 12:05:31;;;;;;;7.57;2.20;;;22.90;50.50;;;;;;4966720;28;20055;-52
2023/08/01 12:08:09;;;;;;;4.47;2.42;;;22.90;50.30;;;;;;4966927;28;20062;-50
2023/08/01 12:10:40;;;;;;;6.45;2.40;;;22.90;49.70;;;;;;4967762;28;20129;-55
2023/08/01 12:13:07;;;;;;;8.45;2.10;;;22.90;49.90;;;;;;4966224;28;20055;-50
2023/08/01 12:15:34;;;;;;;7.00;2.22;;;22.90;49.80;;;;;;4967638;28;20078;-63
2023/08/01 12:18:03;;;;;;;5.70;2.30;;;22.90;49.30;;;;;;4967845;28;20414;-51
2023/08/01 12:20:30;;;;;;;5.18;1.83;;;22.90;49.80;;;;;;4965962;28;20065;-49
2023/08/01 12:22:57;;;;;;;4.15;1.88;;;22.90;50.30;;;;;;4967333;28;20055;-54
2023/08/01 12:25:25;;;;;;;9.25;2.13;;;22.90;50.40;;;;;;4965980;28;20054;-56
2023/08/01 12:27:52;;;;;;;5.97;1.98;;;22.80;50.10;;;;;;4966190;28;20058;-53
2023/08/01 12:30:19;;;;;;;6.40;2.22;;;22.80;50.90;;;;;;4967483;28;20050;-52
2023/08/01 12:32:47;;;;;;;7.97;2.20;;;22.70;51.30;;;;;;4965997;28;20058;-55
2023/08/01 12:35:15;;;;;;;4.20;1.88;;;22.70;52.00;;;;;;4967039;28;20055;-54
2023/08/01 12:37:42;;;;;;;2.42;1.48;;;22.70;52.30;;;;;;4966341;28;20082;-47
2023/08/01 12:40:10;;;;;;;3.85;1.75;;;22.70;51.50;;;;;;4966039;28;20069;-52
2023/08/01 12:42:37;;;;;;;3.92;1.67;;;22.70;51.40;;;;;;4965988;28;20084;-53
2023/08/01 12:45:06;;;;;;;3.33;1.65;;;22.70;51.60;;;;;;4967459;28;20516;-53
2023/08/01 12:47:33;;;;;;;6.10;1.42;;;22.70;50.90;;;;;;4966147;28;20051;-54
2023/08/01 12:50:00;;;;;;;3.22;1.30;;;22.80;51.20;;;;;;4966773;28;20419;-57